createdAt,value
2022-11-23T00:00:34.665Z,6.63
2022-11-23T00:03:19.381Z,6.53
2022-11-23T00:06:04.264Z,6.39
2022-11-23T00:08:49.206Z,6.48
2022-11-23T00:11:34.154Z,6.14
2022-11-23T00:14:19.039Z,6.23
2022-11-23T00:17:03.865Z,6.26
2022-11-23T00:19:48.913Z,6.39
2022-11-23T00:22:33.878Z,6.46
2022-11-23T00:25:18.698Z,6.40
2022-11-23T00:28:03.456Z,5.98
2022-11-23T00:30:48.365Z,6.04
2022-11-23T00:33:33.233Z,6.25
2022-11-23T00:36:18.241Z,5.63
2022-11-23T00:39:03.197Z,5.73
2022-11-23T00:41:48.044Z,4.88
2022-11-23T00:44:33.066Z,5.10
2022-11-23T00:47:17.976Z,5.12
2022-11-23T00:50:02.841Z,4.88
2022-11-23T00:52:47.666Z,5.79
2022-11-23T00:55:32.654Z,5.62
2022-11-23T00:58:17.793Z,5.35
2022-11-23T01:01:02.967Z,5.46
2022-11-23T01:03:47.809Z,5.99
2022-11-23T01:06:32.674Z,5.70
2022-11-23T01:09:17.625Z,6.20
2022-11-23T01:12:02.401Z,6.17
2022-11-23T01:14:47.251Z,6.58
2022-11-23T01:17:32.073Z,6.48
2022-11-23T01:20:16.879Z,6.77
2022-11-23T01:23:01.747Z,6.85
2022-11-23T01:25:46.567Z,6.27
2022-11-23T01:28:31.767Z,6.18
2022-11-23T01:31:16.738Z,5.88
2022-11-23T01:34:01.785Z,6.21
2022-11-23T01:36:46.696Z,5.61
2022-11-23T01:39:31.971Z,5.76
2022-11-23T01:42:18.133Z,6.25
2022-11-23T01:45:03.288Z,5.91
2022-11-23T01:47:48.249Z,5.64
2022-11-23T01:50:33.162Z,5.58
2022-11-23T01:53:18.010Z,5.45
2022-11-23T01:56:02.969Z,5.66
2022-11-23T01:58:47.958Z,5.14
2022-11-23T02:01:32.784Z,5.88
2022-11-23T02:04:18.041Z,6.16
2022-11-23T02:07:02.948Z,6.48
2022-11-23T02:09:47.702Z,6.82
2022-11-23T02:12:32.548Z,6.91
2022-11-23T02:15:17.471Z,6.77
2022-11-23T02:18:02.625Z,6.62
2022-11-23T02:20:47.430Z,6.59
2022-11-23T02:23:32.305Z,6.61
2022-11-23T02:26:17.178Z,6.79
2022-11-23T02:29:02.266Z,6.79
2022-11-23T02:31:47.268Z,6.61
2022-11-23T02:34:32.090Z,7.01
2022-11-23T02:37:16.926Z,6.80
2022-11-23T02:40:01.855Z,7.08
2022-11-23T02:42:46.782Z,6.61
2022-11-23T02:45:31.578Z,6.94
2022-11-23T02:48:16.524Z,6.83
2022-11-23T02:51:01.379Z,6.81
2022-11-23T02:53:46.268Z,6.89
2022-11-23T02:56:31.252Z,6.56
2022-11-23T02:59:16.136Z,6.96
2022-11-23T03:02:01.029Z,6.63
2022-11-23T03:04:45.937Z,6.64
2022-11-23T03:07:31.131Z,6.77
2022-11-23T03:10:15.910Z,6.51
2022-11-23T03:13:00.921Z,6.66
2022-11-23T03:15:45.730Z,6.82
2022-11-23T03:18:30.754Z,6.95
2022-11-23T03:21:15.706Z,6.92
2022-11-23T03:24:00.460Z,6.95
2022-11-23T03:26:45.338Z,6.70
2022-11-23T03:29:30.547Z,6.66
2022-11-23T03:32:15.700Z,6.91
2022-11-23T03:35:00.664Z,6.35
2022-11-23T03:37:45.682Z,6.59
2022-11-23T03:40:30.482Z,6.16
2022-11-23T03:43:15.941Z,6.24
2022-11-23T03:46:00.723Z,6.36
2022-11-23T03:48:45.736Z,6.11
2022-11-23T03:51:30.725Z,6.43
2022-11-23T03:54:15.631Z,6.72
2022-11-23T03:57:00.493Z,6.46
2022-11-23T03:59:45.353Z,6.25
2022-11-23T04:02:30.182Z,6.21
2022-11-23T04:05:15.103Z,6.41
2022-11-23T04:08:00.011Z,6.42
2022-11-23T04:10:45.035Z,6.21
2022-11-23T04:13:29.820Z,6.24
2022-11-23T04:16:14.735Z,6.56
2022-11-23T04:18:59.648Z,6.17
2022-11-23T04:21:44.740Z,6.27
2022-11-23T04:24:29.566Z,6.21
2022-11-23T04:27:14.541Z,5.98
2022-11-23T04:29:59.376Z,6.09
2022-11-23T04:32:44.261Z,6.04
2022-11-23T04:35:29.122Z,6.35
2022-11-23T04:38:14.014Z,6.21
2022-11-23T04:40:59.257Z,5.95
2022-11-23T04:43:44.149Z,5.94
2022-11-23T04:46:29.062Z,5.85
2022-11-23T04:49:13.924Z,6.13
2022-11-23T04:51:58.804Z,6.29
2022-11-23T04:54:43.686Z,5.80
2022-11-23T04:57:28.443Z,6.08
2022-11-23T05:00:13.206Z,5.70
2022-11-23T05:02:57.962Z,5.67
2022-11-23T05:05:42.996Z,5.62
2022-11-23T05:08:27.704Z,6.11
2022-11-23T05:11:12.558Z,5.59
2022-11-23T05:13:57.298Z,5.45
2022-11-23T05:16:42.172Z,5.73
2022-11-23T05:19:27.071Z,5.71
2022-11-23T05:22:11.936Z,5.60
2022-11-23T05:24:56.912Z,5.72
2022-11-23T05:27:41.865Z,5.83
2022-11-23T05:30:26.780Z,5.64
2022-11-23T05:33:11.801Z,5.86
2022-11-23T05:35:56.788Z,5.84
2022-11-23T05:38:41.638Z,5.89
2022-11-23T05:41:26.445Z,6.06
2022-11-23T05:44:11.326Z,5.92
2022-11-23T05:46:56.322Z,5.64
2022-11-23T05:49:41.358Z,5.80
2022-11-23T05:52:26.167Z,5.44
2022-11-23T05:55:11.132Z,5.09
2022-11-23T05:57:56.018Z,5.24
2022-11-23T06:00:40.870Z,5.77
2022-11-23T06:03:25.733Z,5.06
2022-11-23T06:06:10.625Z,5.08
2022-11-23T06:08:55.464Z,5.23
2022-11-23T06:11:40.520Z,5.20
2022-11-23T06:14:25.538Z,4.88
2022-11-23T06:17:10.428Z,5.21
2022-11-23T06:19:55.243Z,5.05
2022-11-23T06:22:40.134Z,5.33
2022-11-23T06:25:25.145Z,5.24
2022-11-23T06:28:10.052Z,4.89
2022-11-23T06:30:54.939Z,5.38
2022-11-23T06:33:39.895Z,5.31
2022-11-23T06:36:24.799Z,4.89
2022-11-23T06:39:09.559Z,5.32
2022-11-23T06:42:02.825Z,4.95
2022-11-23T06:44:59.816Z,5.02
2022-11-23T06:47:45.114Z,5.28
2022-11-23T06:50:30.136Z,5.15
2022-11-23T06:53:15.083Z,5.11
2022-11-23T06:55:59.957Z,5.36
2022-11-23T06:58:44.891Z,5.31
2022-11-23T07:01:29.826Z,4.42
2022-11-23T07:04:14.763Z,4.56
2022-11-23T07:06:59.525Z,4.53
2022-11-23T07:09:44.475Z,4.46
2022-11-23T07:12:29.423Z,5.24
2022-11-23T07:15:14.338Z,5.51
2022-11-23T07:17:59.387Z,5.88
2022-11-23T07:20:44.151Z,5.83
2022-11-23T07:23:29.189Z,6.26
2022-11-23T07:26:14.056Z,5.05
2022-11-23T07:28:58.973Z,5.10
2022-11-23T07:31:43.835Z,5.79
2022-11-23T07:34:28.780Z,6.00
2022-11-23T07:37:13.651Z,5.77
2022-11-23T07:39:58.778Z,6.16
2022-11-23T07:42:45.158Z,6.10
2022-11-23T07:45:30.446Z,6.03
2022-11-23T07:48:15.437Z,6.28
2022-11-23T07:51:00.154Z,5.76
2022-11-23T07:53:45.153Z,4.63
2022-11-23T07:56:30.165Z,4.82
2022-11-23T07:59:15.002Z,5.09
2022-11-23T08:01:59.924Z,4.84
2022-11-23T08:04:44.519Z,4.58
2022-11-23T08:07:29.583Z,4.32
2022-11-23T08:10:14.326Z,5.08
2022-11-23T08:12:59.148Z,4.56
2022-11-23T08:15:47.533Z,5.30
2022-11-23T08:18:35.267Z,5.41
2022-11-23T08:21:20.173Z,6.17
2022-11-23T08:24:05.014Z,5.47
2022-11-23T08:26:50.127Z,5.62
2022-11-23T08:29:35.080Z,6.60
2022-11-23T08:32:19.913Z,6.07
2022-11-23T08:35:04.785Z,6.09
2022-11-23T08:37:49.511Z,6.01
2022-11-23T08:40:34.406Z,6.32
2022-11-23T08:43:19.300Z,6.22
2022-11-23T08:46:08.085Z,6.42
2022-11-23T08:48:56.103Z,6.06
2022-11-23T08:51:43.404Z,6.43
2022-11-23T08:54:30.953Z,6.68
2022-11-23T08:57:16.304Z,6.84
2022-11-23T09:00:01.261Z,6.79
2022-11-23T09:02:46.232Z,7.44
2022-11-23T09:05:31.125Z,6.96
2022-11-23T09:08:15.951Z,5.96
2022-11-23T09:11:00.926Z,6.50
2022-11-23T09:13:45.762Z,6.51
2022-11-23T09:16:33.836Z,6.33
2022-11-23T09:19:19.060Z,6.98
2022-11-23T09:22:03.884Z,6.48
2022-11-23T09:24:48.840Z,6.48
2022-11-23T09:27:33.609Z,6.56
2022-11-23T09:30:18.573Z,6.52
2022-11-23T09:33:03.425Z,6.31
2022-11-23T09:35:48.366Z,6.91
2022-11-23T09:38:55.156Z,7.21
2022-11-23T09:41:38.262Z,7.49
2022-11-23T09:44:23.181Z,7.87
2022-11-23T09:47:08.034Z,7.51
2022-11-23T09:49:52.882Z,7.55
2022-11-23T09:52:37.848Z,8.12
2022-11-23T09:55:22.707Z,8.04
2022-11-23T09:58:07.645Z,8.24
2022-11-23T10:00:52.558Z,8.09
2022-11-23T10:03:37.559Z,8.93
2022-11-23T10:06:22.284Z,8.79
2022-11-23T10:09:07.158Z,8.67
2022-11-23T10:11:52.021Z,8.17
2022-11-23T10:14:37.115Z,7.96
2022-11-23T10:17:22.021Z,8.30
2022-11-23T10:20:06.929Z,8.35
2022-11-23T10:22:51.824Z,8.03
2022-11-23T10:25:39.273Z,9.00
2022-11-23T10:28:24.547Z,9.01
2022-11-23T10:31:09.369Z,9.06
2022-11-23T10:33:54.186Z,9.33
2022-11-23T10:36:39.117Z,9.57
2022-11-23T10:39:24.005Z,9.03
2022-11-23T10:42:08.945Z,9.82
2022-11-23T10:44:53.746Z,10.13
2022-11-23T10:47:38.559Z,10.69
2022-11-23T10:50:23.401Z,10.46
2022-11-23T10:53:08.430Z,10.70
2022-11-23T10:55:53.288Z,10.48
2022-11-23T10:58:38.245Z,10.41
2022-11-23T11:01:23.328Z,10.07
2022-11-23T11:04:08.613Z,10.41
2022-11-23T11:06:53.565Z,9.86
2022-11-23T11:09:38.380Z,10.55
2022-11-23T11:12:23.420Z,10.81
2022-11-23T11:15:12.178Z,11.42
2022-11-23T11:17:57.713Z,11.35
2022-11-23T11:20:42.824Z,11.26
2022-11-23T11:23:27.711Z,10.92
2022-11-23T11:26:12.637Z,10.91
2022-11-23T11:28:57.489Z,10.75
2022-11-23T11:31:42.352Z,9.71
2022-11-23T11:34:27.180Z,10.13
2022-11-23T11:37:12.001Z,9.88
2022-11-23T11:39:57.096Z,8.75
2022-11-23T11:42:41.844Z,9.27
2022-11-23T11:45:26.914Z,8.26
2022-11-23T11:48:11.671Z,9.05
2022-11-23T11:50:56.449Z,9.42
2022-11-23T11:53:41.284Z,8.59
2022-11-23T11:56:26.121Z,8.95
2022-11-23T11:59:11.049Z,9.25
2022-11-23T12:01:55.853Z,9.20
2022-11-23T12:04:40.948Z,9.31
2022-11-23T12:07:25.762Z,8.94
2022-11-23T12:10:10.631Z,8.84
2022-11-23T12:12:55.565Z,8.10
2022-11-23T12:15:55.674Z,9.33
2022-11-23T12:18:40.915Z,9.67
2022-11-23T12:21:25.982Z,8.80
2022-11-23T12:24:10.920Z,9.42
2022-11-23T12:26:55.752Z,9.51
2022-11-23T12:29:40.760Z,9.89
2022-11-23T12:32:25.507Z,10.53
2022-11-23T12:35:10.461Z,10.79
2022-11-23T12:37:55.310Z,10.41
2022-11-23T12:40:40.124Z,11.24
2022-11-23T12:43:25.041Z,11.01
2022-11-23T12:46:09.819Z,10.76
2022-11-23T12:48:54.806Z,10.29
2022-11-23T12:51:39.674Z,10.19
2022-11-23T12:54:24.710Z,10.17
2022-11-23T12:57:09.588Z,10.24
2022-11-23T12:59:54.766Z,9.42
2022-11-23T13:02:40.126Z,9.56
2022-11-23T13:05:25.142Z,9.95
2022-11-23T13:08:09.937Z,9.92
2022-11-23T13:10:54.784Z,10.23
2022-11-23T13:13:39.671Z,9.44
2022-11-23T13:16:24.798Z,9.64
2022-11-23T13:19:09.945Z,9.21
2022-11-23T13:21:54.859Z,9.65
2022-11-23T13:24:39.832Z,9.93
2022-11-23T13:27:29.840Z,10.39
2022-11-23T13:30:16.874Z,8.95
2022-11-23T13:33:01.616Z,9.17
2022-11-23T13:35:46.592Z,9.49
2022-11-23T13:38:31.451Z,8.78
2022-11-23T13:41:17.605Z,8.29
2022-11-23T13:44:02.236Z,7.93
2022-11-23T13:46:47.142Z,8.30
2022-11-23T13:49:32.031Z,7.93
2022-11-23T13:52:16.997Z,8.14
2022-11-23T13:55:08.607Z,8.49
2022-11-23T13:57:54.623Z,8.66
2022-11-23T14:00:39.757Z,8.54
2022-11-23T14:03:24.625Z,8.79
2022-11-23T14:06:09.523Z,8.31
2022-11-23T14:08:54.425Z,7.91
2022-11-23T14:11:39.307Z,7.76
2022-11-23T14:14:24.263Z,7.11
2022-11-23T14:17:09.566Z,7.14
2022-11-23T14:19:54.557Z,7.07
2022-11-23T14:22:39.436Z,6.92
2022-11-23T14:25:24.272Z,7.27
2022-11-23T14:28:09.221Z,7.45
2022-11-23T14:30:53.982Z,7.32
2022-11-23T14:33:39.375Z,7.40
2022-11-23T14:36:24.776Z,7.23
2022-11-23T14:39:09.792Z,7.54
2022-11-23T14:41:54.906Z,7.49
2022-11-23T14:44:40.591Z,7.20
2022-11-23T14:47:26.184Z,6.84
2022-11-23T14:50:11.518Z,7.15
2022-11-23T14:52:56.448Z,7.16
2022-11-23T14:55:41.261Z,7.08
2022-11-23T14:58:26.198Z,7.02
2022-11-23T15:01:10.966Z,7.20
2022-11-23T15:03:56.038Z,7.63
2022-11-23T15:06:45.314Z,7.53
2022-11-23T15:09:30.860Z,7.09
2022-11-23T15:12:15.781Z,7.46
2022-11-23T15:15:00.675Z,7.50
2022-11-23T15:17:45.591Z,6.63
2022-11-23T15:20:30.475Z,6.30
2022-11-23T15:23:15.198Z,6.63
2022-11-23T15:26:00.169Z,6.58
2022-11-23T15:28:45.019Z,6.79
2022-11-23T15:31:29.907Z,6.38
2022-11-23T15:34:14.817Z,6.64
2022-11-23T15:36:59.831Z,6.65
2022-11-23T15:39:44.792Z,6.32
2022-11-23T15:42:29.515Z,6.81
2022-11-23T15:45:14.459Z,6.98
2022-11-23T15:47:59.255Z,7.04
2022-11-23T15:50:44.167Z,6.06
2022-11-23T15:53:28.946Z,6.15
2022-11-23T15:56:13.830Z,5.79
2022-11-23T15:58:58.717Z,6.03
2022-11-23T16:01:43.687Z,6.14
2022-11-23T16:04:28.487Z,6.33
2022-11-23T16:07:13.459Z,6.30
2022-11-23T16:09:58.701Z,6.71
2022-11-23T16:12:43.759Z,6.88
2022-11-23T16:15:28.825Z,6.15
2022-11-23T16:18:13.621Z,5.97
2022-11-23T16:20:58.533Z,6.30
2022-11-23T16:23:43.347Z,6.60
2022-11-23T16:26:28.155Z,6.99
2022-11-23T16:29:13.132Z,6.19
2022-11-23T16:31:57.977Z,6.88
2022-11-23T16:34:43.299Z,6.74
2022-11-23T16:37:28.438Z,6.85
2022-11-23T16:40:13.369Z,6.86
2022-11-23T16:42:58.156Z,6.67
2022-11-23T16:45:43.090Z,6.60
2022-11-23T16:48:27.902Z,6.94
2022-11-23T16:51:12.911Z,7.04
2022-11-23T16:54:14.689Z,7.08
2022-11-23T16:57:01.550Z,6.82
2022-11-23T16:59:46.357Z,7.25
2022-11-23T17:02:31.176Z,7.49
2022-11-23T17:05:16.191Z,7.26
2022-11-23T17:08:01.225Z,7.29
2022-11-23T17:10:46.577Z,7.44
2022-11-23T17:13:31.572Z,7.56
2022-11-23T17:16:16.447Z,7.35
2022-11-23T17:19:01.886Z,7.45
2022-11-23T17:21:46.766Z,7.37
2022-11-23T17:24:32.146Z,7.21
2022-11-23T17:27:17.601Z,7.49
2022-11-23T17:30:02.540Z,7.41
2022-11-23T17:32:47.555Z,6.85
2022-11-23T17:35:36.889Z,6.95
2022-11-23T17:38:23.233Z,7.29
2022-11-23T17:41:08.154Z,7.27
2022-11-23T17:43:52.999Z,7.30
2022-11-23T17:46:37.887Z,7.49
2022-11-23T17:49:23.228Z,7.48
2022-11-23T17:52:08.122Z,7.41
2022-11-23T17:54:53.000Z,7.07
2022-11-23T17:57:37.772Z,7.33
2022-11-23T18:00:22.988Z,6.95
2022-11-23T18:03:08.283Z,6.93
2022-11-23T18:05:53.285Z,7.24
2022-11-23T18:08:38.163Z,6.98
2022-11-23T18:11:22.965Z,6.71
2022-11-23T18:14:07.911Z,7.03
2022-11-23T18:16:52.867Z,7.05
2022-11-23T18:19:37.731Z,7.06
2022-11-23T18:22:22.649Z,7.05
2022-11-23T18:25:07.495Z,7.10
2022-11-23T18:27:52.548Z,7.03
2022-11-23T18:30:37.772Z,7.28
2022-11-23T18:33:22.662Z,7.18
2022-11-23T18:36:07.593Z,7.15
2022-11-23T18:38:52.433Z,7.09
2022-11-23T18:41:37.374Z,6.81
2022-11-23T18:44:22.312Z,6.72
2022-11-23T18:47:07.079Z,6.80
2022-11-23T18:49:52.033Z,6.98
2022-11-23T18:52:36.856Z,6.69
2022-11-23T18:55:21.940Z,6.88
2022-11-23T18:58:06.873Z,7.07
2022-11-23T19:00:51.911Z,6.80
2022-11-23T19:03:36.874Z,6.97
2022-11-23T19:06:21.800Z,6.87
2022-11-23T19:09:06.598Z,6.74
2022-11-23T19:11:51.613Z,7.01
2022-11-23T19:14:36.749Z,6.59
2022-11-23T19:17:21.676Z,6.84
2022-11-23T19:20:06.718Z,6.92
2022-11-23T19:22:51.596Z,6.97
2022-11-23T19:25:36.605Z,7.20
2022-11-23T19:28:21.596Z,7.00
2022-11-23T19:31:06.585Z,6.99
2022-11-23T19:33:51.425Z,6.71
2022-11-23T19:36:36.491Z,7.07
2022-11-23T19:39:21.848Z,7.32
2022-11-23T19:42:06.824Z,6.97
2022-11-23T19:44:51.709Z,7.10
2022-11-23T19:47:36.563Z,7.29
2022-11-23T19:50:21.485Z,7.09
2022-11-23T19:53:13.575Z,7.26
2022-11-23T19:55:58.777Z,7.17
2022-11-23T19:58:43.752Z,7.21
2022-11-23T20:01:28.870Z,7.44
2022-11-23T20:04:13.953Z,6.94
2022-11-23T20:06:58.780Z,7.23
2022-11-23T20:09:43.612Z,7.27
2022-11-23T20:12:28.514Z,7.09
2022-11-23T20:15:13.369Z,6.87
2022-11-23T20:17:58.317Z,7.15
2022-11-23T20:20:43.394Z,7.27
2022-11-23T20:23:28.232Z,7.22
2022-11-23T20:26:13.147Z,7.33
2022-11-23T20:28:58.110Z,7.14
2022-11-23T20:31:43.194Z,7.13
2022-11-23T20:34:28.048Z,7.19
2022-11-23T20:37:13.022Z,7.20
2022-11-23T20:39:57.944Z,7.49
2022-11-23T20:42:42.766Z,6.96
2022-11-23T20:45:27.842Z,6.85
2022-11-23T20:48:12.652Z,6.98
2022-11-23T20:50:57.778Z,6.98
2022-11-23T20:53:42.637Z,7.03
2022-11-23T20:56:27.706Z,7.02
2022-11-23T20:59:12.596Z,7.11
2022-11-23T21:01:57.761Z,7.33
2022-11-23T21:04:43.162Z,7.22
2022-11-23T21:07:28.034Z,7.14
2022-11-23T21:10:12.999Z,7.25
2022-11-23T21:12:58.050Z,7.15
2022-11-23T21:15:43.054Z,7.48
2022-11-23T21:18:27.828Z,7.58
2022-11-23T21:21:12.747Z,7.64
2022-11-23T21:23:57.608Z,7.62
2022-11-23T21:26:42.503Z,7.39
2022-11-23T21:29:27.356Z,7.54
2022-11-23T21:32:12.090Z,7.77
2022-11-23T21:34:57.077Z,7.72
2022-11-23T21:37:42.053Z,7.81
2022-11-23T21:40:26.888Z,7.86
2022-11-23T21:43:11.644Z,7.82
2022-11-23T21:45:56.413Z,7.64
2022-11-23T21:48:41.325Z,7.91
2022-11-23T21:51:26.091Z,8.04
2022-11-23T21:54:10.967Z,8.02
2022-11-23T21:56:55.991Z,7.96
2022-11-23T21:59:40.988Z,8.05
2022-11-23T22:02:25.895Z,7.88
2022-11-23T22:05:10.752Z,7.50
2022-11-23T22:08:27.634Z,7.54
2022-11-23T22:11:00.706Z,6.98
2022-11-23T22:13:45.591Z,7.66
2022-11-23T22:16:30.479Z,7.61
2022-11-23T22:19:15.397Z,7.89
2022-11-23T22:22:00.254Z,7.89
2022-11-23T22:24:45.247Z,7.68
2022-11-23T22:27:30.145Z,7.94
2022-11-23T22:30:14.897Z,7.93
2022-11-23T22:32:59.906Z,7.45
2022-11-23T22:35:44.827Z,7.75
2022-11-23T22:38:29.685Z,7.53
2022-11-23T22:41:14.668Z,8.04
2022-11-23T22:43:59.740Z,8.17
2022-11-23T22:46:44.568Z,7.86
2022-11-23T22:49:29.441Z,7.79
2022-11-23T22:52:14.273Z,7.92
2022-11-23T22:54:59.121Z,7.90
2022-11-23T22:57:43.962Z,8.39
2022-11-23T23:00:28.888Z,8.13
2022-11-23T23:03:14.043Z,8.45
2022-11-23T23:05:59.217Z,8.43
2022-11-23T23:08:44.099Z,8.32
2022-11-23T23:11:28.922Z,8.19
2022-11-23T23:14:13.778Z,8.12
2022-11-23T23:16:58.545Z,7.57
2022-11-23T23:19:43.415Z,7.61
2022-11-23T23:22:28.365Z,7.49
2022-11-23T23:25:13.387Z,7.37
2022-11-23T23:27:58.255Z,7.71
2022-11-23T23:30:43.358Z,7.86
2022-11-23T23:33:28.211Z,7.77
2022-11-23T23:36:13.080Z,7.58
2022-11-23T23:38:57.949Z,7.53
2022-11-23T23:41:42.760Z,7.18
2022-11-23T23:44:27.634Z,7.42
2022-11-23T23:47:12.472Z,7.36
2022-11-23T23:49:57.365Z,7.27
2022-11-23T23:52:42.181Z,7.43
2022-11-23T23:55:27.074Z,7.56
2022-11-23T23:58:11.987Z,7.67
